Latest Weather Observations for Ulladulla

IDN60801

Issued at 1:03 pm EDT Thursday 11 February 2016 (issued every 30 minutes, with the page automatically refreshed every 10 minutes)

About weather observations | Map of weather stations | Latest weather observations for NSW | Other Formats
Station Details ID: 069138 Name: ULLADULLA AWS Lat: -35.36 Lon: 150.48 Height: 35.7 m
Data from the previous 72 hours. | See also: Recent months at Ulladulla
Date/Time
EDT
Temp
°C
App
Temp
°C
Dew
Point
Rel
Hum
%
Delta-T
°C
Wind Press
QNH
hPa
Press
MSL
hPa
Rain
since 9 am
mm
Dir
 
Spd
km/h
Gust
km/h
Spd
kts
Gust
kts
11/01:00pm 25.5 27.8 20.7 75 3.1 E 9 15 5 8 1015.3 1015.2 0.0
11/12:30pm 24.9 26.6 20.2 75 3.1 E 11 17 6 9 1015.5 1015.4 0.0
11/12:00pm 24.6 26.6 19.9 75 3.0 ESE 9 15 5 8 1015.7 1015.6 0.0
11/11:30am 24.3 25.8 18.9 72 3.4 ENE 9 13 5 7 1015.9 1015.8 0.0
11/11:00am 24.1 25.8 18.5 71 3.5 NNE 7 9 4 5 1015.9 1015.8 0.0
11/10:30am 23.9 26.3 20.0 79 2.5 NE 7 11 4 6 1015.8 1015.7 0.0
11/10:00am 23.1 25.8 20.6 86 1.6 NNE 7 9 4 5 1015.7 1015.6 0.0
11/09:30am 23.0 25.6 20.1 84 1.9 NNE 6 9 3 5 1015.7 1015.6 0.0
11/09:00am 22.9 25.5 20.1 84 1.8 NW 6 9 3 5 1015.7 1015.6 0.0
11/08:30am 22.6 25.9 19.9 85 1.7 W 2 6 1 3 1015.5 1015.4 0.0
11/08:00am 21.9 25.8 20.4 91 1.0 CALM 0 2 0 1 1015.3 1015.2 0.0
11/07:30am 21.3 25.5 21.0 98 0.2 CALM 0 0 0 0 1014.9 1014.8 0.0
11/07:00am 20.6 24.4 20.1 97 0.3 CALM 0 0 0 0 1014.5 1014.4 0.0
11/06:30am 20.5 23.7 19.7 95 0.5 WSW 2 4 1 2 1014.0 1013.9 0.0
11/06:00am 20.3 23.1 19.6 96 0.4 WSW 4 6 2 3 1013.7 1013.6 0.0
11/05:30am 20.1 23.3 18.9 93 0.8 CALM 0 0 0 0 1013.5 1013.4 0.0
11/05:00am 20.4 24.0 19.7 96 0.4 CALM 0 0 0 0 1013.2 1013.1 0.0
11/04:30am 20.5 23.7 19.7 95 0.5 WSW 2 4 1 2 1013.0 1012.9 0.0
11/04:00am 20.8 23.3 19.8 94 0.6 WSW 6 7 3 4 1013.1 1013.0 0.0
11/03:30am 21.0 24.5 19.5 91 1.0 CALM 0 4 0 2 1013.0 1012.9 0.0
11/03:00am 21.2 24.3 20.2 94 0.6 SSW 4 6 2 3 1013.3 1013.2 0.0
11/02:30am 21.2 23.9 20.2 94 0.6 SSW 6 6 3 3 1013.5 1013.4 0.0
11/02:00am 21.3 24.2 19.8 91 1.0 SSW 4 6 2 3 1013.6 1013.5 0.0
11/01:30am 21.4 24.4 20.0 92 0.9 S 4 6 2 3 1013.8 1013.7 0.0
11/01:00am 21.4 23.6 19.3 88 1.3 WSW 6 7 3 4 1013.9 1013.8 0.0
11/12:30am 21.4 23.9 19.0 86 1.5 WSW 4 6 2 3 1014.1 1014.0 0.0
11/12:00am 21.6 23.8 19.2 86 1.5 SW 6 9 3 5 1014.3 1014.2 0.0
 
Date/Time
EDT
Temp
°C
App
Temp
°C
Dew
Point
Rel
Hum
%
Delta-T
°C
Wind Press
QNH
hPa
Press
MSL
hPa
Rain
since 9 am
mm
Dir
 
Spd
km/h
Gust
km/h
Spd
kts
Gust
kts
10/11:30pm 21.6 23.6 18.8 84 1.8 WSW 6 9 3 5 1014.3 1014.2 0.0
10/11:00pm 21.9 24.5 19.3 85 1.7 NNW 4 6 2 3 1014.4 1014.3 0.0
10/10:30pm 22.5 25.4 19.9 85 1.7 NNE 4 9 2 5 1014.3 1014.2 0.0
10/10:00pm 22.8 25.8 20.0 84 1.8 NNE 4 9 2 5 1014.2 1014.1 0.0
10/09:30pm 22.9 25.1 19.7 82 2.1 NNE 7 19 4 10 1013.8 1013.7 0.0
10/09:00pm 23.1 25.4 19.9 82 2.1 NNE 7 19 4 10 1013.4 1013.3 0.0
10/08:30pm 23.1 24.6 19.7 81 2.2 NE 11 20 6 11 1012.7 1012.6 0.0
10/08:00pm 23.3 23.9 19.5 79 2.4 NE 15 28 8 15 1012.6 1012.5 0.0
10/07:30pm 23.2 24.3 19.6 80 2.3 NE 13 22 7 12 1012.2 1012.1 0.0
10/07:00pm 23.4 23.5 19.1 77 2.7 NE 17 24 9 13 1011.6 1011.5 0.0
10/06:30pm 24.0 25.2 19.1 74 3.1 NNE 11 19 6 10 1011.1 1011.0 0.0
10/06:00pm 24.1 24.1 19.0 73 3.3 NE 17 28 9 15 1010.5 1010.4 0.0
10/05:30pm 24.5 24.7 19.3 73 3.3 NE 17 28 9 15 1010.5 1010.4 0.0
10/05:00pm 24.6 24.4 19.7 74 3.2 NE 20 32 11 17 1010.4 1010.3 0.0
10/04:30pm 24.9 24.7 19.7 73 3.4 NE 20 30 11 16 1010.5 1010.4 0.0
10/04:00pm 25.2 26.0 19.8 72 3.5 NNE 15 26 8 14 1010.7 1010.6 0.0
10/03:30pm 24.9 23.7 19.3 71 3.6 NE 24 33 13 18 1010.8 1010.7 0.0
10/03:00pm 25.1 23.5 19.2 70 3.8 NE 26 33 14 18 1011.0 1010.9 0.0
10/02:30pm 25.1 23.5 19.2 70 3.8 NNE 26 35 14 19 1011.3 1011.2 0.0
10/02:00pm 25.0 23.6 18.9 69 3.9 NNE 24 32 13 17 1011.7 1011.6 0.0
10/01:30pm 25.1 25.0 19.5 71 3.6 NNE 19 26 10 14 1012.0 1011.9 0.0
10/01:00pm 25.1 25.8 19.7 72 3.5 NNE 15 24 8 13 1012.3 1012.2 0.0
10/12:30pm 24.5 24.3 19.3 73 3.3 NNE 19 28 10 15 1012.7 1012.6 0.0
10/12:00pm 24.3 22.5 18.7 71 3.6 NE 26 32 14 17 1013.1 1013.0 0.0
10/11:30am 23.8 21.8 18.4 72 3.4 NE 26 33 14 18 1013.6 1013.5 0.0
10/11:00am 23.3 21.2 18.0 72 3.3 NE 26 33 14 18 1014.0 1013.9 0.0
10/10:30am 23.5 22.9 17.5 69 3.7 NE 17 28 9 15 1014.3 1014.2 0.0
10/10:00am 24.3 25.9 18.2 68 3.8 NNE 7 15 4 8 1014.7 1014.6 0.0
10/09:30am 23.3 24.1 18.2 73 3.2 N 11 20 6 11 1014.7 1014.6 0.0
10/09:00am 21.9 21.4 16.8 73 3.1 N 15 20 8 11 1015.2 1015.1 0.0
10/08:30am 20.5 20.6 16.5 78 2.4 N 11 19 6 10 1015.1 1015.0 0.0
10/08:00am 19.9 20.6 16.0 78 2.3 N 7 9 4 5 1015.1 1015.0 0.0
10/07:30am 18.9 19.9 15.4 80 2.1 N 4 6 2 3 1015.1 1015.0 0.0
10/07:00am 18.4 18.9 15.1 81 1.9 NNW 6 11 3 6 1014.9 1014.8 0.0
10/06:30am 18.4 18.8 15.3 82 1.8 N 7 11 4 6 1014.8 1014.7 0.0
10/06:00am 18.6 19.2 15.3 81 1.9 N 6 9 3 5 1014.8 1014.7 0.0
10/05:30am 18.5 18.9 15.2 81 1.9 N 7 13 4 7 1014.9 1014.8 0.0
10/05:00am 18.1 18.4 15.0 82 1.8 N 7 11 4 6 1015.0 1014.9 0.0
10/04:30am 18.4 18.9 15.1 81 1.9 N 6 7 3 4 1015.1 1015.0 0.0
10/04:00am 18.4 19.0 15.3 82 1.8 N 6 9 3 5 1015.2 1015.1 0.0
10/03:30am 18.4 19.3 16.2 87 1.3 N 6 9 3 5 1015.5 1015.4 0.0
10/03:00am 18.1 19.1 15.4 84 1.6 NNW 4 6 2 3 1015.9 1015.8 0.0
10/02:30am 18.3 18.9 15.4 83 1.7 NNW 6 7 3 4 1016.3 1016.2 0.0
10/02:00am 18.3 19.0 15.6 84 1.6 NNW 6 9 3 5 1016.7 1016.6 0.0
10/01:30am 18.2 18.9 15.5 84 1.6 NNW 6 7 3 4 1017.0 1016.9 0.0
10/01:00am 18.6 19.4 15.8 84 1.7 NW 6 9 3 5 1017.5 1017.4 0.0
10/12:30am 18.6 19.3 15.7 83 1.7 NNW 6 7 3 4 1017.9 1017.8 0.0
10/12:00am 18.8 20.0 15.9 83 1.7 NNW 4 7 2 4 1018.4 1018.3 0.0
 
Date/Time
EDT
Temp
°C
App
Temp
°C
Dew
Point
Rel
Hum
%
Delta-T
°C
Wind Press
QNH
hPa
Press
MSL
hPa
Rain
since 9 am
mm
Dir
 
Spd
km/h
Gust
km/h
Spd
kts
Gust
kts
09/11:30pm 18.9 20.1 16.0 83 1.7 NNW 4 7 2 4 1018.7 1018.6 0.0
09/11:00pm 19.3 20.2 16.2 82 1.9 NNW 6 7 3 4 1019.0 1018.9 0.0
09/10:30pm 19.3 20.5 15.8 80 2.1 NW 4 6 2 3 1019.2 1019.1 0.0
09/10:00pm 19.9 21.2 16.2 79 2.2 NNW 4 6 2 3 1019.4 1019.3 0.0
09/09:30pm 21.1 22.7 16.9 77 2.6 NE 4 9 2 5 1019.3 1019.2 0.0
09/09:00pm 21.0 22.2 16.8 77 2.6 NE 6 9 3 5 1019.1 1019.0 0.0
09/08:30pm 20.9 22.0 16.5 76 2.7 NE 6 9 3 5 1019.1 1019.0 0.0
09/08:00pm 21.0 22.3 16.2 74 2.9 NE 4 9 2 5 1019.1 1019.0 0.0
09/07:30pm 21.4 23.4 15.9 71 3.3 CALM 0 4 0 2 1019.1 1019.0 0.0
09/07:00pm 21.9 23.0 15.7 68 3.7 ENE 4 6 2 3 1019.0 1018.9 0.0
09/06:30pm 22.4 23.4 15.3 64 4.2 ENE 4 6 2 3 1018.7 1018.6 0.0
09/06:00pm 22.9 24.0 15.7 64 4.3 ENE 4 9 2 5 1018.7 1018.6 0.0
09/05:30pm 23.0 23.8 15.8 64 4.3 E 6 9 3 5 1018.7 1018.6 0.0
09/05:00pm 23.1 23.1 15.2 61 4.7 ESE 9 13 5 7 1019.0 1018.9 0.0
09/04:30pm 23.4 23.5 15.5 61 4.8 SE 9 15 5 8 1019.3 1019.2 0.0
09/04:00pm 23.6 23.7 15.6 61 4.8 SE 9 13 5 7 1019.5 1019.4 0.0
09/03:30pm 24.3 24.9 16.8 63 4.6 SSE 9 13 5 7 1019.8 1019.7 0.0
09/03:00pm 23.6 23.5 15.9 62 4.7 SSE 11 15 6 8 1020.3 1020.2 0.0
09/02:30pm 23.4 22.5 14.9 59 5.1 SSE 13 17 7 9 1020.6 1020.5 0.0
09/02:00pm 23.7 24.0 16.0 62 4.7 SSE 9 15 5 8 1020.9 1020.8 0.0
09/01:30pm 23.6 23.3 15.4 60 4.9 SSE 11 15 6 8 1021.1 1021.0 0.0
09/01:00pm 23.5 22.5 15.5 60 4.8 S 15 20 8 11 1021.3 1021.2 0.0
09/12:30pm 23.8 23.1 16.3 63 4.6 S 15 22 8 12 1021.6 1021.5 0.0
09/12:00pm 23.4 22.2 16.0 63 4.5 S 17 24 9 13 1021.8 1021.7 0.0
09/11:30am 22.8 20.3 15.1 62 4.6 S 22 28 12 15 1022.0 1021.9 0.0
09/11:00am 23.4 21.9 16.2 64 4.4 S 19 26 10 14 1022.2 1022.1 0.0
09/10:30am 22.1 19.6 15.2 65 4.1 S 22 32 12 17 1022.1 1022.0 0.0
09/10:00am 22.5 20.0 16.1 67 3.9 S 24 32 13 17 1022.0 1021.9 0.0
09/09:30am 21.7 19.7 16.4 72 3.2 S 22 30 12 16 1022.0 1021.9 0.0
09/09:00am 21.4 19.5 16.6 74 2.9 S 22 30 12 16 1021.8 1021.7 0.0
09/08:30am 21.5 19.6 16.7 74 2.9 S 22 32 12 17 1021.5 1021.4 0.0
09/08:00am 22.1 20.8 17.2 74 3.0 S 20 30 11 16 1021.3 1021.2 0.0
09/07:30am 21.8 20.1 17.2 75 2.8 S 22 32 12 17 1020.8 1020.7 0.0
09/07:00am 21.4 19.4 17.4 78 2.5 SSE 24 35 13 19 1020.4 1020.3 0.0
09/06:30am 21.5 20.1 17.9 80 2.2 SSE 22 33 12 18 1020.1 1020.0 0.0
09/06:00am 21.4 20.6 18.0 81 2.1 SSE 19 26 10 14 1019.9 1019.8 0.0
09/05:30am 21.3 20.8 17.9 81 2.1 S 17 24 9 13 1019.6 1019.5 0.0
09/05:00am 21.5 20.7 18.1 81 2.1 S 19 26 10 14 1019.6 1019.5 0.0
09/04:30am 21.6 20.8 18.0 80 2.2 SSE 19 28 10 15 1019.3 1019.2 0.0
09/04:00am 21.7 21.5 18.5 82 2.0 SSE 17 24 9 13 1019.3 1019.2 0.0
09/03:30am 21.8 21.3 18.6 82 2.0 SSE 19 24 10 13 1019.4 1019.3 0.0
09/03:00am 21.9 21.8 18.7 82 2.0 SSE 17 24 9 13 1019.5 1019.4 0.0
09/02:30am 21.9 21.8 18.7 82 2.0 SSE 17 24 9 13 1019.6 1019.5 0.0
09/02:00am 22.1 22.4 18.7 81 2.1 SSE 15 20 8 11 1019.9 1019.8 0.0
09/01:30am 22.3 22.4 19.1 82 2.0 SSE 17 22 9 12 1019.9 1019.8 0.0
09/01:00am 22.3 22.2 18.7 80 2.3 S 17 22 9 12 1020.1 1020.0 0.0
09/12:30am 22.1 23.0 19.3 84 1.8 SSW 13 22 7 12 1020.1 1020.0 0.0
09/12:00am 21.2 22.9 18.0 82 2.0 WSW 6 9 3 5 1020.3 1020.2 0.0
 
Date/Time
EDT
Temp
°C
App
Temp
°C
Dew
Point
Rel
Hum
%
Delta-T
°C
Wind Press
QNH
hPa
Press
MSL
hPa
Rain
since 9 am
mm
Dir
 
Spd
km/h
Gust
km/h
Spd
kts
Gust
kts
08/11:30pm 20.9 22.4 17.7 82 2.0 WSW 6 7 3 4 1020.4 1020.3 0.0
08/11:00pm 21.4 23.2 18.2 82 2.0 SW 6 9 3 5 1020.4 1020.3 0.0
08/10:30pm 21.7 23.3 18.3 81 2.1 SSW 7 9 4 5 1020.5 1020.4 0.0
08/10:00pm 22.1 23.7 18.3 79 2.4 SSW 7 11 4 6 1020.4 1020.3 0.0
08/09:30pm 22.5 23.8 18.5 78 2.5 S 9 15 5 8 1020.2 1020.1 0.0
08/09:00pm 22.5 23.5 18.7 79 2.4 S 11 15 6 8 1019.9 1019.8 0.0
08/08:30pm 22.5 24.1 19.1 81 2.2 S 9 11 5 6 1019.6 1019.5 0.0
08/08:00pm 22.6 24.6 18.8 79 2.4 S 6 9 3 5 1019.3 1019.2 0.0
08/07:30pm 23.3 25.2 18.6 75 3.0 SSE 6 9 3 5 1019.1 1019.0 0.0
08/07:00pm 23.8 25.6 18.2 71 3.5 SE 6 9 3 5 1018.6 1018.5 0.0
08/06:30pm 24.0 25.7 18.0 69 3.8 E 6 7 3 4 1018.3 1018.2 0.0
08/06:00pm 24.3 25.8 18.0 68 4.0 NE 7 9 4 5 1018.0 1017.9 0.0
08/05:30pm 24.4 25.9 18.1 68 4.0 ENE 7 13 4 7 1018.0 1017.9 0.0
08/05:00pm 25.0 26.9 18.9 69 3.9 ENE 7 11 4 6 1018.2 1018.1 0.0
08/04:30pm 24.7 26.1 18.6 69 3.9 NE 9 13 5 7 1018.2 1018.1 0.0
08/04:00pm 24.6 25.6 17.8 66 4.3 ENE 9 15 5 8 1018.1 1018.0 0.0
08/03:30pm 24.5 25.0 17.5 65 4.4 NE 11 17 6 9 1018.2 1018.1 0.0
08/03:00pm 24.6 25.0 17.3 64 4.5 NE 11 17 6 9 1018.4 1018.3 0.0
08/02:30pm 25.0 26.3 18.4 66 4.2 ENE 9 15 5 8 1018.5 1018.4 0.0
08/02:00pm 24.6 25.6 17.8 66 4.3 NE 9 15 5 8 1018.6 1018.5 0.0
08/01:30pm 24.1 25.0 17.6 67 4.1 ENE 9 15 5 8 1018.8 1018.7 0.0

Other Formats:

Comma delimited format used in spreadsheet applications
http://www.bom.gov.au/fwo/IDN60801/IDN60801.94938.axf

JavaScript Object Notation format (JSON) in row-major order
http://www.bom.gov.au/fwo/IDN60801/IDN60801.94938.json